<?xml version="1.0" encoding="UTF-8" standalone="no" ?>
<gpx xmlns="http://www.topografix.com/GPX/1/1" xmlns:xsi="http://www.w3.org/2001/XMLSchema-instance" xsi:schemaLocation="http://www.topografix.com/GPX/1/1 http://www.topografix.com/GPX/1/1/gpx.xsd" version="1.1" creator="VisuGPX - https://www.visugpx.com">
  <metadata>
    <name>Trail BTT 10 Km</name>
    <desc><![CDATA[Tracé du bruéjouls tassou trail 10 Km
le 25 juin 2016]]></desc>
  </metadata>
  <trk>
    <name><![CDATA[--Clairvaux-d'Aveyron-- OR-5462935:V10_3]]></name>
    <trkseg>
      <trkpt lat="44.41425" lon="2.42059">
        <ele>354</ele>
        <time>2016-03-08T20:32:35Z</time>
      </trkpt>
      <trkpt lat="44.41409" lon="2.42057">
        <ele>355</ele>
        <time>2016-03-08T20:34:35Z</time>
      </trkpt>
      <trkpt lat="44.41374" lon="2.42049">
        <ele>358</ele>
        <time>2016-03-08T20:36:35Z</time>
      </trkpt>
      <trkpt lat="44.41335" lon="2.42041">
        <ele>360</ele>
        <time>2016-03-08T20:38:35Z</time>
      </trkpt>
      <trkpt lat="44.41293" lon="2.42036">
        <ele>358</ele>
        <time>2016-03-08T20:40:35Z</time>
      </trkpt>
      <trkpt lat="44.41258" lon="2.4203">
        <ele>356</ele>
        <time>2016-03-08T20:42:35Z</time>
      </trkpt>
      <trkpt lat="44.41217" lon="2.42069">
        <ele>358</ele>
        <time>2016-03-08T20:44:35Z</time>
      </trkpt>
      <trkpt lat="44.41114" lon="2.42136">
        <ele>365</ele>
        <time>2016-03-08T20:46:35Z</time>
      </trkpt>
      <trkpt lat="44.41068" lon="2.42149">
        <ele>366</ele>
        <time>2016-03-08T20:48:35Z</time>
      </trkpt>
      <trkpt lat="44.41044" lon="2.42151">
        <ele>368</ele>
        <time>2016-03-08T20:50:35Z</time>
      </trkpt>
      <trkpt lat="44.40958" lon="2.42155">
        <ele>375</ele>
        <time>2016-03-08T20:52:35Z</time>
      </trkpt>
      <trkpt lat="44.40921" lon="2.42175">
        <ele>380</ele>
        <time>2016-03-08T20:54:35Z</time>
      </trkpt>
      <trkpt lat="44.40883" lon="2.42196">
        <ele>384</ele>
        <time>2016-03-08T20:56:35Z</time>
      </trkpt>
      <trkpt lat="44.40854" lon="2.42205">
        <ele>387</ele>
        <time>2016-03-08T20:58:35Z</time>
      </trkpt>
      <trkpt lat="44.40845" lon="2.42284">
        <ele>386</ele>
        <time>2016-03-08T21:00:35Z</time>
      </trkpt>
      <trkpt lat="44.40834" lon="2.4234">
        <ele>387</ele>
        <time>2016-03-08T21:02:35Z</time>
      </trkpt>
      <trkpt lat="44.40809" lon="2.42376">
        <ele>385</ele>
        <time>2016-03-08T21:04:35Z</time>
      </trkpt>
      <trkpt lat="44.40785" lon="2.42443">
        <ele>385</ele>
        <time>2016-03-08T21:06:35Z</time>
      </trkpt>
      <trkpt lat="44.40776" lon="2.4249">
        <ele>386</ele>
        <time>2016-03-08T21:08:35Z</time>
      </trkpt>
      <trkpt lat="44.40777" lon="2.42565">
        <ele>387</ele>
        <time>2016-03-08T21:10:35Z</time>
      </trkpt>
      <trkpt lat="44.40779" lon="2.42612">
        <ele>388</ele>
        <time>2016-03-08T21:12:35Z</time>
      </trkpt>
      <trkpt lat="44.4077" lon="2.42653">
        <ele>390</ele>
        <time>2016-03-08T21:14:35Z</time>
      </trkpt>
      <trkpt lat="44.40737" lon="2.42694">
        <ele>392</ele>
        <time>2016-03-08T21:16:35Z</time>
      </trkpt>
      <trkpt lat="44.40671" lon="2.427">
        <ele>391</ele>
        <time>2016-03-08T21:18:35Z</time>
      </trkpt>
      <trkpt lat="44.40641" lon="2.42709">
        <ele>393</ele>
        <time>2016-03-08T21:20:35Z</time>
      </trkpt>
      <trkpt lat="44.40604" lon="2.42728">
        <ele>397</ele>
        <time>2016-03-08T21:22:35Z</time>
      </trkpt>
      <trkpt lat="44.40555" lon="2.42722">
        <ele>399</ele>
        <time>2016-03-08T21:24:35Z</time>
      </trkpt>
      <trkpt lat="44.40524" lon="2.42754">
        <ele>403</ele>
        <time>2016-03-08T21:26:35Z</time>
      </trkpt>
      <trkpt lat="44.40478" lon="2.42784">
        <ele>407</ele>
        <time>2016-03-08T21:28:35Z</time>
      </trkpt>
      <trkpt lat="44.40419" lon="2.42831">
        <ele>413</ele>
        <time>2016-03-08T21:30:35Z</time>
      </trkpt>
      <trkpt lat="44.40385" lon="2.42848">
        <ele>415</ele>
        <time>2016-03-08T21:32:35Z</time>
      </trkpt>
      <trkpt lat="44.4036" lon="2.42825">
        <ele>411</ele>
        <time>2016-03-08T21:34:35Z</time>
      </trkpt>
      <trkpt lat="44.40342" lon="2.42797">
        <ele>407</ele>
        <time>2016-03-08T21:36:35Z</time>
      </trkpt>
      <trkpt lat="44.40331" lon="2.4275">
        <ele>400</ele>
        <time>2016-03-08T21:38:35Z</time>
      </trkpt>
      <trkpt lat="44.40304" lon="2.4272">
        <ele>394</ele>
        <time>2016-03-08T21:40:35Z</time>
      </trkpt>
      <trkpt lat="44.40278" lon="2.42715">
        <ele>391</ele>
        <time>2016-03-08T21:42:35Z</time>
      </trkpt>
      <trkpt lat="44.40253" lon="2.42741">
        <ele>392</ele>
        <time>2016-03-08T21:44:35Z</time>
      </trkpt>
      <trkpt lat="44.40207" lon="2.42775">
        <ele>393</ele>
        <time>2016-03-08T21:46:35Z</time>
      </trkpt>
      <trkpt lat="44.40155" lon="2.42818">
        <ele>397</ele>
        <time>2016-03-08T21:48:35Z</time>
      </trkpt>
      <trkpt lat="44.40112" lon="2.42764">
        <ele>385</ele>
        <time>2016-03-08T21:50:35Z</time>
      </trkpt>
      <trkpt lat="44.40037" lon="2.42786">
        <ele>381</ele>
        <time>2016-03-08T21:52:35Z</time>
      </trkpt>
      <trkpt lat="44.40098" lon="2.42688">
        <ele>370</ele>
        <time>2016-03-08T21:54:35Z</time>
      </trkpt>
      <trkpt lat="44.4007" lon="2.42608">
        <ele>364</ele>
        <time>2016-03-08T21:56:35Z</time>
      </trkpt>
      <trkpt lat="44.40075" lon="2.42555">
        <ele>365</ele>
        <time>2016-03-08T21:58:35Z</time>
      </trkpt>
      <trkpt lat="44.40053" lon="2.42495">
        <ele>368</ele>
        <time>2016-03-08T22:00:35Z</time>
      </trkpt>
      <trkpt lat="44.40017" lon="2.42445">
        <ele>371</ele>
        <time>2016-03-08T22:02:35Z</time>
      </trkpt>
      <trkpt lat="44.39968" lon="2.4247">
        <ele>372</ele>
        <time>2016-03-08T22:04:35Z</time>
      </trkpt>
      <trkpt lat="44.39891" lon="2.42516">
        <ele>375</ele>
        <time>2016-03-08T22:06:35Z</time>
      </trkpt>
      <trkpt lat="44.39804" lon="2.42576">
        <ele>379</ele>
        <time>2016-03-08T22:08:35Z</time>
      </trkpt>
      <trkpt lat="44.39786" lon="2.4264">
        <ele>377</ele>
        <time>2016-03-08T22:10:35Z</time>
      </trkpt>
      <trkpt lat="44.39795" lon="2.42705">
        <ele>372</ele>
        <time>2016-03-08T22:12:35Z</time>
      </trkpt>
      <trkpt lat="44.39796" lon="2.42807">
        <ele>374</ele>
        <time>2016-03-08T22:14:35Z</time>
      </trkpt>
      <trkpt lat="44.39658" lon="2.42891">
        <ele>380</ele>
        <time>2016-03-08T22:16:35Z</time>
      </trkpt>
      <trkpt lat="44.39676" lon="2.42954">
        <ele>389</ele>
        <time>2016-03-08T22:18:35Z</time>
      </trkpt>
      <trkpt lat="44.39691" lon="2.43038">
        <ele>396</ele>
        <time>2016-03-08T22:20:35Z</time>
      </trkpt>
      <trkpt lat="44.39807" lon="2.43044">
        <ele>403</ele>
        <time>2016-03-08T22:22:35Z</time>
      </trkpt>
      <trkpt lat="44.39912" lon="2.4318">
        <ele>432</ele>
        <time>2016-03-08T22:24:35Z</time>
      </trkpt>
      <trkpt lat="44.39986" lon="2.43247">
        <ele>446</ele>
        <time>2016-03-08T22:26:35Z</time>
      </trkpt>
      <trkpt lat="44.40059" lon="2.4328">
        <ele>472</ele>
        <time>2016-03-08T22:28:35Z</time>
      </trkpt>
      <trkpt lat="44.40078" lon="2.43318">
        <ele>483</ele>
        <time>2016-03-08T22:30:35Z</time>
      </trkpt>
      <trkpt lat="44.40096" lon="2.43351">
        <ele>495</ele>
        <time>2016-03-08T22:32:35Z</time>
      </trkpt>
      <trkpt lat="44.40122" lon="2.43374">
        <ele>511</ele>
        <time>2016-03-08T22:34:35Z</time>
      </trkpt>
      <trkpt lat="44.40158" lon="2.43404">
        <ele>533</ele>
        <time>2016-03-08T22:36:35Z</time>
      </trkpt>
      <trkpt lat="44.40175" lon="2.43417">
        <ele>542</ele>
        <time>2016-03-08T22:38:35Z</time>
      </trkpt>
      <trkpt lat="44.40166" lon="2.43513">
        <ele>548</ele>
        <time>2016-03-08T22:40:35Z</time>
      </trkpt>
      <trkpt lat="44.40167" lon="2.43563">
        <ele>548</ele>
        <time>2016-03-08T22:42:35Z</time>
      </trkpt>
      <trkpt lat="44.40181" lon="2.43625">
        <ele>549</ele>
        <time>2016-03-08T22:44:35Z</time>
      </trkpt>
      <trkpt lat="44.40182" lon="2.43696">
        <ele>547</ele>
        <time>2016-03-08T22:46:35Z</time>
      </trkpt>
      <trkpt lat="44.40176" lon="2.43756">
        <ele>548</ele>
        <time>2016-03-08T22:48:35Z</time>
      </trkpt>
      <trkpt lat="44.40166" lon="2.43805">
        <ele>551</ele>
        <time>2016-03-08T22:50:35Z</time>
      </trkpt>
      <trkpt lat="44.40152" lon="2.43842">
        <ele>551</ele>
        <time>2016-03-08T22:52:35Z</time>
      </trkpt>
      <trkpt lat="44.40161" lon="2.43902">
        <ele>565</ele>
        <time>2016-03-08T22:54:35Z</time>
      </trkpt>
      <trkpt lat="44.40178" lon="2.43949">
        <ele>573</ele>
        <time>2016-03-08T22:56:35Z</time>
      </trkpt>
      <trkpt lat="44.40193" lon="2.43998">
        <ele>578</ele>
        <time>2016-03-08T22:58:35Z</time>
      </trkpt>
      <trkpt lat="44.40222" lon="2.44033">
        <ele>580</ele>
        <time>2016-03-08T23:00:35Z</time>
      </trkpt>
      <trkpt lat="44.40241" lon="2.44065">
        <ele>581</ele>
        <time>2016-03-08T23:02:35Z</time>
      </trkpt>
      <trkpt lat="44.40245" lon="2.4411">
        <ele>583</ele>
        <time>2016-03-08T23:04:35Z</time>
      </trkpt>
      <trkpt lat="44.40258" lon="2.44155">
        <ele>583</ele>
        <time>2016-03-08T23:06:35Z</time>
      </trkpt>
      <trkpt lat="44.40255" lon="2.44185">
        <ele>584</ele>
        <time>2016-03-08T23:08:35Z</time>
      </trkpt>
      <trkpt lat="44.40244" lon="2.44269">
        <ele>585</ele>
        <time>2016-03-08T23:10:35Z</time>
      </trkpt>
      <trkpt lat="44.40239" lon="2.44335">
        <ele>585</ele>
        <time>2016-03-08T23:12:35Z</time>
      </trkpt>
      <trkpt lat="44.40232" lon="2.44379">
        <ele>585</ele>
        <time>2016-03-08T23:14:35Z</time>
      </trkpt>
      <trkpt lat="44.4023" lon="2.44414">
        <ele>585</ele>
        <time>2016-03-08T23:16:35Z</time>
      </trkpt>
      <trkpt lat="44.4023" lon="2.44462">
        <ele>582</ele>
        <time>2016-03-08T23:18:35Z</time>
      </trkpt>
      <trkpt lat="44.40249" lon="2.44489">
        <ele>582</ele>
        <time>2016-03-08T23:20:35Z</time>
      </trkpt>
      <trkpt lat="44.40253" lon="2.44493">
        <ele>581</ele>
        <time>2016-03-08T23:22:35Z</time>
      </trkpt>
      <trkpt lat="44.40291" lon="2.4436">
        <ele>582</ele>
        <time>2016-03-08T23:24:35Z</time>
      </trkpt>
      <trkpt lat="44.40291" lon="2.44319">
        <ele>583</ele>
        <time>2016-03-08T23:26:35Z</time>
      </trkpt>
      <trkpt lat="44.40281" lon="2.44292">
        <ele>583</ele>
        <time>2016-03-08T23:28:35Z</time>
      </trkpt>
      <trkpt lat="44.40296" lon="2.4427">
        <ele>582</ele>
        <time>2016-03-08T23:30:35Z</time>
      </trkpt>
      <trkpt lat="44.40319" lon="2.44269">
        <ele>581</ele>
        <time>2016-03-08T23:32:35Z</time>
      </trkpt>
      <trkpt lat="44.40346" lon="2.44275">
        <ele>578</ele>
        <time>2016-03-08T23:34:35Z</time>
      </trkpt>
      <trkpt lat="44.40379" lon="2.44301">
        <ele>573</ele>
        <time>2016-03-08T23:36:35Z</time>
      </trkpt>
      <trkpt lat="44.40376" lon="2.44329">
        <ele>573</ele>
        <time>2016-03-08T23:38:35Z</time>
      </trkpt>
      <trkpt lat="44.40409" lon="2.44335">
        <ele>568</ele>
        <time>2016-03-08T23:40:35Z</time>
      </trkpt>
      <trkpt lat="44.40434" lon="2.44352">
        <ele>563</ele>
        <time>2016-03-08T23:42:35Z</time>
      </trkpt>
      <trkpt lat="44.40471" lon="2.44395">
        <ele>558</ele>
        <time>2016-03-08T23:44:35Z</time>
      </trkpt>
      <trkpt lat="44.40515" lon="2.44413">
        <ele>556</ele>
        <time>2016-03-08T23:46:35Z</time>
      </trkpt>
      <trkpt lat="44.40555" lon="2.44419">
        <ele>557</ele>
        <time>2016-03-08T23:48:35Z</time>
      </trkpt>
      <trkpt lat="44.4059" lon="2.44387">
        <ele>549</ele>
        <time>2016-03-08T23:50:35Z</time>
      </trkpt>
      <trkpt lat="44.40633" lon="2.44376">
        <ele>551</ele>
        <time>2016-03-08T23:52:35Z</time>
      </trkpt>
      <trkpt lat="44.4069" lon="2.44361">
        <ele>552</ele>
        <time>2016-03-08T23:54:35Z</time>
      </trkpt>
      <trkpt lat="44.40734" lon="2.44361">
        <ele>554</ele>
        <time>2016-03-08T23:56:35Z</time>
      </trkpt>
      <trkpt lat="44.40757" lon="2.44361">
        <ele>554</ele>
        <time>2016-03-08T23:58:35Z</time>
      </trkpt>
      <trkpt lat="44.40793" lon="2.44385">
        <ele>558</ele>
        <time>2016-03-09T00:00:35Z</time>
      </trkpt>
      <trkpt lat="44.40846" lon="2.44423">
        <ele>565</ele>
        <time>2016-03-09T00:02:35Z</time>
      </trkpt>
      <trkpt lat="44.40888" lon="2.44432">
        <ele>566</ele>
        <time>2016-03-09T00:04:35Z</time>
      </trkpt>
      <trkpt lat="44.40926" lon="2.44421">
        <ele>564</ele>
        <time>2016-03-09T00:06:35Z</time>
      </trkpt>
      <trkpt lat="44.40967" lon="2.44419">
        <ele>561</ele>
        <time>2016-03-09T00:08:35Z</time>
      </trkpt>
      <trkpt lat="44.40993" lon="2.44443">
        <ele>563</ele>
        <time>2016-03-09T00:10:35Z</time>
      </trkpt>
      <trkpt lat="44.41027" lon="2.44485">
        <ele>569</ele>
        <time>2016-03-09T00:12:35Z</time>
      </trkpt>
      <trkpt lat="44.41052" lon="2.44507">
        <ele>572</ele>
        <time>2016-03-09T00:14:35Z</time>
      </trkpt>
      <trkpt lat="44.41136" lon="2.44462">
        <ele>561</ele>
        <time>2016-03-09T00:16:35Z</time>
      </trkpt>
      <trkpt lat="44.4116" lon="2.44466">
        <ele>563</ele>
        <time>2016-03-09T00:18:35Z</time>
      </trkpt>
      <trkpt lat="44.4119" lon="2.44477">
        <ele>568</ele>
        <time>2016-03-09T00:20:35Z</time>
      </trkpt>
      <trkpt lat="44.4122" lon="2.44494">
        <ele>574</ele>
        <time>2016-03-09T00:22:35Z</time>
      </trkpt>
      <trkpt lat="44.41249" lon="2.44501">
        <ele>577</ele>
        <time>2016-03-09T00:24:35Z</time>
      </trkpt>
      <trkpt lat="44.41271" lon="2.44475">
        <ele>571</ele>
        <time>2016-03-09T00:26:35Z</time>
      </trkpt>
      <trkpt lat="44.41318" lon="2.44436">
        <ele>569</ele>
        <time>2016-03-09T00:28:35Z</time>
      </trkpt>
      <trkpt lat="44.41372" lon="2.44415">
        <ele>567</ele>
        <time>2016-03-09T00:30:35Z</time>
      </trkpt>
      <trkpt lat="44.414" lon="2.44408">
        <ele>563</ele>
        <time>2016-03-09T00:32:35Z</time>
      </trkpt>
      <trkpt lat="44.41432" lon="2.44447">
        <ele>570</ele>
        <time>2016-03-09T00:34:35Z</time>
      </trkpt>
      <trkpt lat="44.41462" lon="2.4444">
        <ele>567</ele>
        <time>2016-03-09T00:36:35Z</time>
      </trkpt>
      <trkpt lat="44.41498" lon="2.44423">
        <ele>562</ele>
        <time>2016-03-09T00:38:35Z</time>
      </trkpt>
      <trkpt lat="44.41554" lon="2.44398">
        <ele>556</ele>
        <time>2016-03-09T00:40:35Z</time>
      </trkpt>
      <trkpt lat="44.41577" lon="2.444">
        <ele>556</ele>
        <time>2016-03-09T00:42:35Z</time>
      </trkpt>
      <trkpt lat="44.41659" lon="2.44363">
        <ele>557</ele>
        <time>2016-03-09T00:44:35Z</time>
      </trkpt>
      <trkpt lat="44.4167" lon="2.44346">
        <ele>557</ele>
        <time>2016-03-09T00:46:35Z</time>
      </trkpt>
      <trkpt lat="44.41665" lon="2.44269">
        <ele>562</ele>
        <time>2016-03-09T00:48:35Z</time>
      </trkpt>
      <trkpt lat="44.41654" lon="2.44229">
        <ele>565</ele>
        <time>2016-03-09T00:50:35Z</time>
      </trkpt>
      <trkpt lat="44.41636" lon="2.44174">
        <ele>570</ele>
        <time>2016-03-09T00:52:35Z</time>
      </trkpt>
      <trkpt lat="44.416" lon="2.4411">
        <ele>569</ele>
        <time>2016-03-09T00:54:35Z</time>
      </trkpt>
      <trkpt lat="44.41567" lon="2.44058">
        <ele>567</ele>
        <time>2016-03-09T00:56:35Z</time>
      </trkpt>
      <trkpt lat="44.41524" lon="2.44007">
        <ele>565</ele>
        <time>2016-03-09T00:58:35Z</time>
      </trkpt>
      <trkpt lat="44.41505" lon="2.43971">
        <ele>564</ele>
        <time>2016-03-09T01:00:35Z</time>
      </trkpt>
      <trkpt lat="44.41492" lon="2.43928">
        <ele>566</ele>
        <time>2016-03-09T01:02:35Z</time>
      </trkpt>
      <trkpt lat="44.41462" lon="2.4391">
        <ele>566</ele>
        <time>2016-03-09T01:04:35Z</time>
      </trkpt>
      <trkpt lat="44.41429" lon="2.43913">
        <ele>563</ele>
        <time>2016-03-09T01:06:35Z</time>
      </trkpt>
      <trkpt lat="44.41381" lon="2.43913">
        <ele>554</ele>
        <time>2016-03-09T01:08:35Z</time>
      </trkpt>
      <trkpt lat="44.41341" lon="2.43883">
        <ele>552</ele>
        <time>2016-03-09T01:10:35Z</time>
      </trkpt>
      <trkpt lat="44.41314" lon="2.43846">
        <ele>554</ele>
        <time>2016-03-09T01:12:35Z</time>
      </trkpt>
      <trkpt lat="44.41305" lon="2.43816">
        <ele>558</ele>
        <time>2016-03-09T01:14:35Z</time>
      </trkpt>
      <trkpt lat="44.41278" lon="2.43795">
        <ele>552</ele>
        <time>2016-03-09T01:16:35Z</time>
      </trkpt>
      <trkpt lat="44.41268" lon="2.43737">
        <ele>552</ele>
        <time>2016-03-09T01:18:35Z</time>
      </trkpt>
      <trkpt lat="44.41278" lon="2.43694">
        <ele>550</ele>
        <time>2016-03-09T01:20:35Z</time>
      </trkpt>
      <trkpt lat="44.41331" lon="2.43651">
        <ele>561</ele>
        <time>2016-03-09T01:22:35Z</time>
      </trkpt>
      <trkpt lat="44.4137" lon="2.4364">
        <ele>564</ele>
        <time>2016-03-09T01:24:35Z</time>
      </trkpt>
      <trkpt lat="44.41403" lon="2.43634">
        <ele>567</ele>
        <time>2016-03-09T01:26:35Z</time>
      </trkpt>
      <trkpt lat="44.41472" lon="2.43638">
        <ele>570</ele>
        <time>2016-03-09T01:28:35Z</time>
      </trkpt>
      <trkpt lat="44.41534" lon="2.43651">
        <ele>570</ele>
        <time>2016-03-09T01:30:35Z</time>
      </trkpt>
      <trkpt lat="44.41577" lon="2.43653">
        <ele>568</ele>
        <time>2016-03-09T01:32:35Z</time>
      </trkpt>
      <trkpt lat="44.4162" lon="2.43679">
        <ele>569</ele>
        <time>2016-03-09T01:34:35Z</time>
      </trkpt>
      <trkpt lat="44.41665" lon="2.43711">
        <ele>570</ele>
        <time>2016-03-09T01:36:35Z</time>
      </trkpt>
      <trkpt lat="44.4172" lon="2.43696">
        <ele>566</ele>
        <time>2016-03-09T01:38:35Z</time>
      </trkpt>
      <trkpt lat="44.41764" lon="2.43679">
        <ele>565</ele>
        <time>2016-03-09T01:40:35Z</time>
      </trkpt>
      <trkpt lat="44.41729" lon="2.43664">
        <ele>559</ele>
        <time>2016-03-09T01:42:35Z</time>
      </trkpt>
      <trkpt lat="44.41691" lon="2.43642">
        <ele>552</ele>
        <time>2016-03-09T01:44:35Z</time>
      </trkpt>
      <trkpt lat="44.41642" lon="2.43614">
        <ele>545</ele>
        <time>2016-03-09T01:46:35Z</time>
      </trkpt>
      <trkpt lat="44.41614" lon="2.43574">
        <ele>534</ele>
        <time>2016-03-09T01:48:35Z</time>
      </trkpt>
      <trkpt lat="44.41587" lon="2.43537">
        <ele>522</ele>
        <time>2016-03-09T01:50:35Z</time>
      </trkpt>
      <trkpt lat="44.41545" lon="2.43505">
        <ele>513</ele>
        <time>2016-03-09T01:52:35Z</time>
      </trkpt>
      <trkpt lat="44.41439" lon="2.43387">
        <ele>485</ele>
        <time>2016-03-09T01:54:35Z</time>
      </trkpt>
      <trkpt lat="44.4138" lon="2.43383">
        <ele>480</ele>
        <time>2016-03-09T01:56:35Z</time>
      </trkpt>
      <trkpt lat="44.41374" lon="2.433">
        <ele>463</ele>
        <time>2016-03-09T01:58:35Z</time>
      </trkpt>
      <trkpt lat="44.41347" lon="2.43279">
        <ele>457</ele>
        <time>2016-03-09T02:00:35Z</time>
      </trkpt>
      <trkpt lat="44.4132" lon="2.4323">
        <ele>446</ele>
        <time>2016-03-09T02:02:35Z</time>
      </trkpt>
      <trkpt lat="44.41291" lon="2.4318">
        <ele>437</ele>
        <time>2016-03-09T02:04:35Z</time>
      </trkpt>
      <trkpt lat="44.41279" lon="2.43165">
        <ele>434</ele>
        <time>2016-03-09T02:06:35Z</time>
      </trkpt>
      <trkpt lat="44.41252" lon="2.43147">
        <ele>428</ele>
        <time>2016-03-09T02:08:35Z</time>
      </trkpt>
      <trkpt lat="44.41233" lon="2.43144">
        <ele>423</ele>
        <time>2016-03-09T02:10:35Z</time>
      </trkpt>
      <trkpt lat="44.41205" lon="2.43172">
        <ele>419</ele>
        <time>2016-03-09T02:12:35Z</time>
      </trkpt>
      <trkpt lat="44.41214" lon="2.43211">
        <ele>424</ele>
        <time>2016-03-09T02:14:35Z</time>
      </trkpt>
      <trkpt lat="44.4121" lon="2.4325">
        <ele>426</ele>
        <time>2016-03-09T02:16:35Z</time>
      </trkpt>
      <trkpt lat="44.41185" lon="2.43275">
        <ele>426</ele>
        <time>2016-03-09T02:18:35Z</time>
      </trkpt>
      <trkpt lat="44.41153" lon="2.43286">
        <ele>424</ele>
        <time>2016-03-09T02:20:35Z</time>
      </trkpt>
      <trkpt lat="44.41105" lon="2.43292">
        <ele>420</ele>
        <time>2016-03-09T02:22:35Z</time>
      </trkpt>
      <trkpt lat="44.41076" lon="2.43296">
        <ele>417</ele>
        <time>2016-03-09T02:24:35Z</time>
      </trkpt>
      <trkpt lat="44.41062" lon="2.43315">
        <ele>417</ele>
        <time>2016-03-09T02:26:35Z</time>
      </trkpt>
      <trkpt lat="44.41049" lon="2.4336">
        <ele>419</ele>
        <time>2016-03-09T02:28:35Z</time>
      </trkpt>
      <trkpt lat="44.41034" lon="2.43349">
        <ele>414</ele>
        <time>2016-03-09T02:30:35Z</time>
      </trkpt>
      <trkpt lat="44.4103" lon="2.43327">
        <ele>411</ele>
        <time>2016-03-09T02:32:35Z</time>
      </trkpt>
      <trkpt lat="44.4102" lon="2.43233">
        <ele>399</ele>
        <time>2016-03-09T02:34:35Z</time>
      </trkpt>
      <trkpt lat="44.41018" lon="2.43194">
        <ele>396</ele>
        <time>2016-03-09T02:36:35Z</time>
      </trkpt>
      <trkpt lat="44.40997" lon="2.43135">
        <ele>390</ele>
        <time>2016-03-09T02:38:35Z</time>
      </trkpt>
      <trkpt lat="44.41011" lon="2.43109">
        <ele>388</ele>
        <time>2016-03-09T02:40:35Z</time>
      </trkpt>
      <trkpt lat="44.41041" lon="2.43054">
        <ele>386</ele>
        <time>2016-03-09T02:42:35Z</time>
      </trkpt>
      <trkpt lat="44.41036" lon="2.42994">
        <ele>381</ele>
        <time>2016-03-09T02:44:35Z</time>
      </trkpt>
      <trkpt lat="44.4103" lon="2.4293">
        <ele>380</ele>
        <time>2016-03-09T02:46:35Z</time>
      </trkpt>
      <trkpt lat="44.4103" lon="2.42863">
        <ele>378</ele>
        <time>2016-03-09T02:48:35Z</time>
      </trkpt>
      <trkpt lat="44.41029" lon="2.42799">
        <ele>377</ele>
        <time>2016-03-09T02:50:35Z</time>
      </trkpt>
      <trkpt lat="44.41038" lon="2.42707">
        <ele>375</ele>
        <time>2016-03-09T02:52:35Z</time>
      </trkpt>
      <trkpt lat="44.41046" lon="2.42619">
        <ele>374</ele>
        <time>2016-03-09T02:54:35Z</time>
      </trkpt>
      <trkpt lat="44.41053" lon="2.42559">
        <ele>374</ele>
        <time>2016-03-09T02:56:35Z</time>
      </trkpt>
      <trkpt lat="44.4105" lon="2.42505">
        <ele>373</ele>
        <time>2016-03-09T02:58:35Z</time>
      </trkpt>
      <trkpt lat="44.4109" lon="2.42483">
        <ele>371</ele>
        <time>2016-03-09T03:00:35Z</time>
      </trkpt>
      <trkpt lat="44.41164" lon="2.42423">
        <ele>370</ele>
        <time>2016-03-09T03:02:35Z</time>
      </trkpt>
      <trkpt lat="44.41205" lon="2.42363">
        <ele>368</ele>
        <time>2016-03-09T03:04:35Z</time>
      </trkpt>
      <trkpt lat="44.41242" lon="2.42312">
        <ele>365</ele>
        <time>2016-03-09T03:06:35Z</time>
      </trkpt>
      <trkpt lat="44.41286" lon="2.42254">
        <ele>360</ele>
        <time>2016-03-09T03:08:35Z</time>
      </trkpt>
      <trkpt lat="44.41308" lon="2.4223">
        <ele>359</ele>
        <time>2016-03-09T03:10:35Z</time>
      </trkpt>
      <trkpt lat="44.41306" lon="2.42209">
        <ele>359</ele>
        <time>2016-03-09T03:12:35Z</time>
      </trkpt>
      <trkpt lat="44.41303" lon="2.42183">
        <ele>359</ele>
        <time>2016-03-09T03:14:35Z</time>
      </trkpt>
      <trkpt lat="44.41306" lon="2.42149">
        <ele>359</ele>
        <time>2016-03-09T03:16:35Z</time>
      </trkpt>
      <trkpt lat="44.41326" lon="2.42118">
        <ele>360</ele>
        <time>2016-03-09T03:18:35Z</time>
      </trkpt>
      <trkpt lat="44.41354" lon="2.42108">
        <ele>359</ele>
        <time>2016-03-09T03:20:35Z</time>
      </trkpt>
      <trkpt lat="44.41378" lon="2.42104">
        <ele>357</ele>
        <time>2016-03-09T03:22:35Z</time>
      </trkpt>
      <trkpt lat="44.41405" lon="2.42115">
        <ele>354</ele>
        <time>2016-03-09T03:24:35Z</time>
      </trkpt>
      <trkpt lat="44.41426" lon="2.42062">
        <ele>354</ele>
        <time>2016-03-09T03:26:35Z</time>
      </trkpt>
    </trkseg>
  </trk>
</gpx>